sensor_id;sensor_type;location;lat;lon;timestamp;pressure;altitude;pressure_sealevel;temperature;humidity
72066;BME280;59939;52.516;13.420;2022-08-07T00:00:27;101624.06;;;15.86;50.44
72066;BME280;59939;52.516;13.420;2022-08-07T00:03:32;101622.44;;;15.85;50.43
72066;BME280;59939;52.516;13.420;2022-08-07T00:06:40;101616.38;;;15.75;50.87
72066;BME280;59939;52.516;13.420;2022-08-07T00:09:44;101616.09;;;15.85;50.81
72066;BME280;59939;52.516;13.420;2022-08-07T00:12:59;101609.28;;;15.91;50.47
72066;BME280;59939;52.516;13.420;2022-08-07T00:16:11;101617.13;;;16.06;49.95
72066;BME280;59939;52.516;13.420;2022-08-07T00:19:15;101617.44;;;15.96;50.50
72066;BME280;59939;52.516;13.420;2022-08-07T00:22:20;101624.91;;;15.87;50.81
72066;BME280;59939;52.516;13.420;2022-08-07T00:25:24;101621.69;;;15.54;51.62
72066;BME280;59939;52.516;13.420;2022-08-07T00:28:29;101625.16;;;15.68;51.41
72066;BME280;59939;52.516;13.420;2022-08-07T00:31:33;101623.53;;;15.67;51.42
72066;BME280;59939;52.516;13.420;2022-08-07T00:34:42;101621.06;;;15.57;51.71
72066;BME280;59939;52.516;13.420;2022-08-07T00:37:46;101630.59;;;15.51;51.98
72066;BME280;59939;52.516;13.420;2022-08-07T00:40:51;101619.75;;;15.63;51.38
72066;BME280;59939;52.516;13.420;2022-08-07T00:44:09;101616.50;;;15.30;52.70
72066;BME280;59939;52.516;13.420;2022-08-07T00:47:14;101613.63;;;15.35;52.56
72066;BME280;59939;52.516;13.420;2022-08-07T00:50:25;101617.97;;;15.27;53.07
72066;BME280;59939;52.516;13.420;2022-08-07T00:53:31;101616.09;;;15.45;52.51
72066;BME280;59939;52.516;13.420;2022-08-07T00:56:36;101619.28;;;15.70;52.01
72066;BME280;59939;52.516;13.420;2022-08-07T00:59:41;101618.38;;;15.43;52.54
72066;BME280;59939;52.516;13.420;2022-08-07T01:02:46;101614.47;;;15.84;51.46
72066;BME280;59939;52.516;13.420;2022-08-07T01:05:54;101606.53;;;15.99;50.93
72066;BME280;59939;52.516;13.420;2022-08-07T01:09:02;101617.50;;;15.65;52.06
72066;BME280;59939;52.516;13.420;2022-08-07T01:12:08;101613.84;;;15.47;52.71
72066;BME280;59939;52.516;13.420;2022-08-07T01:15:14;101613.25;;;15.28;53.13
72066;BME280;59939;52.516;13.420;2022-08-07T01:18:18;101619.78;;;15.32;53.30
72066;BME280;59939;52.516;13.420;2022-08-07T01:21:25;101619.41;;;15.25;53.33
72066;BME280;59939;52.516;13.420;2022-08-07T01:24:35;101610.75;;;15.18;53.78
72066;BME280;59939;52.516;13.420;2022-08-07T01:27:40;101617.22;;;15.13;54.15
72066;BME280;59939;52.516;13.420;2022-08-07T01:30:47;101609.25;;;15.12;54.12
72066;BME280;59939;52.516;13.420;2022-08-07T01:33:52;101604.59;;;15.21;53.77
72066;BME280;59939;52.516;13.420;2022-08-07T01:37:01;101611.13;;;15.25;53.90
72066;BME280;59939;52.516;13.420;2022-08-07T01:40:07;101612.84;;;15.12;54.26
72066;BME280;59939;52.516;13.420;2022-08-07T01:43:14;101608.34;;;15.25;53.86
72066;BME280;59939;52.516;13.420;2022-08-07T01:46:19;101613.63;;;15.35;53.76
72066;BME280;59939;52.516;13.420;2022-08-07T01:49:37;101612.34;;;15.41;53.60
72066;BME280;59939;52.516;13.420;2022-08-07T01:52:43;101618.50;;;15.38;53.77
72066;BME280;59939;52.516;13.420;2022-08-07T01:55:51;101612.88;;;15.52;53.24
72066;BME280;59939;52.516;13.420;2022-08-07T01:59:07;101616.03;;;15.68;52.46
72066;BME280;59939;52.516;13.420;2022-08-07T02:02:39;101618.44;;;15.60;52.81
72066;BME280;59939;52.516;13.420;2022-08-07T02:05:50;101617.19;;;15.36;53.53
72066;BME280;59939;52.516;13.420;2022-08-07T02:09:02;101610.34;;;15.02;54.68
72066;BME280;59939;52.516;13.420;2022-08-07T02:12:12;101608.81;;;15.49;53.10
72066;BME280;59939;52.516;13.420;2022-08-07T02:15:25;101617.97;;;15.27;53.89
72066;BME280;59939;52.516;13.420;2022-08-07T02:18:32;101612.88;;;15.21;54.07
72066;BME280;59939;52.516;13.420;2022-08-07T02:21:38;101615.91;;;15.11;54.70
72066;BME280;59939;52.516;13.420;2022-08-07T02:24:45;101616.19;;;14.78;55.36
72066;BME280;59939;52.516;13.420;2022-08-07T02:27:56;101614.41;;;14.82;55.56
72066;BME280;59939;52.516;13.420;2022-08-07T02:31:05;101617.94;;;14.74;55.82
72066;BME280;59939;52.516;13.420;2022-08-07T02:34:10;101625.84;;;14.67;56.18
72066;BME280;59939;52.516;13.420;2022-08-07T02:37:23;101614.78;;;14.67;56.52
72066;BME280;59939;52.516;13.420;2022-08-07T02:40:30;101614.47;;;14.32;57.34
72066;BME280;59939;52.516;13.420;2022-08-07T02:43:38;101610.91;;;14.68;56.26
72066;BME280;59939;52.516;13.420;2022-08-07T02:46:45;101607.63;;;14.66;56.60
72066;BME280;59939;52.516;13.420;2022-08-07T02:49:54;101605.19;;;14.64;56.39
72066;BME280;59939;52.516;13.420;2022-08-07T02:53:05;101606.06;;;14.51;56.66
72066;BME280;59939;52.516;13.420;2022-08-07T02:56:14;101614.44;;;14.46;57.13
72066;BME280;59939;52.516;13.420;2022-08-07T02:59:26;101614.09;;;14.25;57.98
72066;BME280;59939;52.516;13.420;2022-08-07T03:02:35;101611.47;;;14.07;58.89
72066;BME280;59939;52.516;13.420;2022-08-07T03:05:42;101608.06;;;14.23;58.37
72066;BME280;59939;52.516;13.420;2022-08-07T03:08:51;101603.81;;;14.40;57.75
72066;BME280;59939;52.516;13.420;2022-08-07T03:12:10;101613.91;;;14.22;58.23
72066;BME280;59939;52.516;13.420;2022-08-07T03:15:17;101616.78;;;14.03;58.92
72066;BME280;59939;52.516;13.420;2022-08-07T03:18:22;101615.94;;;14.30;58.35
72066;BME280;59939;52.516;13.420;2022-08-07T03:21:34;101618.22;;;14.14;58.88
72066;BME280;59939;52.516;13.420;2022-08-07T03:24:39;101623.34;;;14.07;58.88
72066;BME280;59939;52.516;13.420;2022-08-07T03:27:45;101620.94;;;14.28;58.51
72066;BME280;59939;52.516;13.420;2022-08-07T03:30:51;101616.56;;;14.13;58.98
72066;BME280;59939;52.516;13.420;2022-08-07T03:34:16;101616.28;;;14.37;58.39
72066;BME280;59939;52.516;13.420;2022-08-07T03:37:24;101618.50;;;14.26;58.37
72066;BME280;59939;52.516;13.420;2022-08-07T03:40:29;101619.94;;;14.60;57.07
72066;BME280;59939;52.516;13.420;2022-08-07T03:43:37;101626.19;;;14.52;57.24
72066;BME280;59939;52.516;13.420;2022-08-07T03:46:43;101616.16;;;14.56;57.21
72066;BME280;59939;52.516;13.420;2022-08-07T03:49:49;101622.50;;;14.56;56.99
72066;BME280;59939;52.516;13.420;2022-08-07T03:52:55;101619.16;;;14.46;57.21
72066;BME280;59939;52.516;13.420;2022-08-07T03:56:03;101629.78;;;14.38;57.37
72066;BME280;59939;52.516;13.420;2022-08-07T03:59:11;101630.78;;;14.20;58.15
72066;BME280;59939;52.516;13.420;2022-08-07T04:02:21;101634.78;;;14.36;57.88
72066;BME280;59939;52.516;13.420;2022-08-07T04:05:39;101644.09;;;14.41;57.41
72066;BME280;59939;52.516;13.420;2022-08-07T04:08:47;101634.66;;;14.19;58.12
72066;BME280;59939;52.516;13.420;2022-08-07T04:11:53;101626.13;;;14.43;57.56
72066;BME280;59939;52.516;13.420;2022-08-07T04:15:01;101626.84;;;14.71;56.77
72066;BME280;59939;52.516;13.420;2022-08-07T04:18:11;101625.84;;;14.67;56.37
72066;BME280;59939;52.516;13.420;2022-08-07T04:21:17;101625.25;;;14.56;56.79
72066;BME280;59939;52.516;13.420;2022-08-07T04:24:29;101625.91;;;14.76;55.98
72066;BME280;59939;52.516;13.420;2022-08-07T04:27:36;101626.72;;;14.98;55.27
72066;BME280;59939;52.516;13.420;2022-08-07T04:30:50;101629.25;;;14.86;55.37
72066;BME280;59939;52.516;13.420;2022-08-07T04:33:57;101622.56;;;15.10;54.67
72066;BME280;59939;52.516;13.420;2022-08-07T04:37:02;101626.75;;;15.60;53.16
72066;BME280;59939;52.516;13.420;2022-08-07T04:40:38;101622.38;;;15.68;52.53
72066;BME280;59939;52.516;13.420;2022-08-07T04:43:42;101628.44;;;15.79;52.67
72066;BME280;59939;52.516;13.420;2022-08-07T04:50:55;101632.41;;;15.95;52.42
72066;BME280;59939;52.516;13.420;2022-08-07T04:57:42;101641.50;;;15.87;53.06
72066;BME280;59939;52.516;13.420;2022-08-07T05:01:05;101640.00;;;15.81;52.50
72066;BME280;59939;52.516;13.420;2022-08-07T05:04:34;101638.84;;;16.39;51.03
72066;BME280;59939;52.516;13.420;2022-08-07T05:07:49;101644.22;;;16.35;51.34
72066;BME280;59939;52.516;13.420;2022-08-07T05:11:02;101630.72;;;16.59;50.67
72066;BME280;59939;52.516;13.420;2022-08-07T05:14:18;101633.16;;;16.61;49.98
72066;BME280;59939;52.516;13.420;2022-08-07T05:17:26;101629.56;;;17.04;49.13
72066;BME280;59939;52.516;13.420;2022-08-07T05:20:39;101644.56;;;16.94;48.60
72066;BME280;59939;52.516;13.420;2022-08-07T05:23:52;101645.91;;;16.79;49.38
72066;BME280;59939;52.516;13.420;2022-08-07T05:26:59;101650.00;;;16.82;48.93
72066;BME280;59939;52.516;13.420;2022-08-07T05:30:05;101657.16;;;16.66;49.65
72066;BME280;59939;52.516;13.420;2022-08-07T05:33:12;101654.34;;;17.00;48.06
72066;BME280;59939;52.516;13.420;2022-08-07T05:36:19;101654.91;;;17.49;46.89
72066;BME280;59939;52.516;13.420;2022-08-07T05:39:25;101650.38;;;17.27;46.80
72066;BME280;59939;52.516;13.420;2022-08-07T05:42:34;101650.31;;;16.80;48.14
72066;BME280;59939;52.516;13.420;2022-08-07T05:45:42;101653.25;;;17.56;46.36
72066;BME280;59939;52.516;13.420;2022-08-07T05:48:49;101659.19;;;17.38;46.58
72066;BME280;59939;52.516;13.420;2022-08-07T05:51:54;101656.09;;;17.22;46.14
72066;BME280;59939;52.516;13.420;2022-08-07T05:55:01;101657.91;;;17.18;46.31
72066;BME280;59939;52.516;13.420;2022-08-07T05:58:09;101657.06;;;17.90;44.07
72066;BME280;59939;52.516;13.420;2022-08-07T06:01:16;101654.28;;;18.19;43.98
72066;BME280;59939;52.516;13.420;2022-08-07T06:04:23;101658.16;;;17.98;44.07
72066;BME280;59939;52.516;13.420;2022-08-07T06:07:34;101659.84;;;17.90;44.43
72066;BME280;59939;52.516;13.420;2022-08-07T06:10:38;101669.59;;;17.96;44.59
72066;BME280;59939;52.516;13.420;2022-08-07T06:13:44;101661.19;;;18.13;43.70
72066;BME280;59939;52.516;13.420;2022-08-07T06:16:55;101667.69;;;18.17;43.57
72066;BME280;59939;52.516;13.420;2022-08-07T06:20:07;101657.41;;;18.59;42.24
72066;BME280;59939;52.516;13.420;2022-08-07T06:23:16;101663.59;;;18.86;42.43
72066;BME280;59939;52.516;13.420;2022-08-07T06:26:22;101656.47;;;19.30;41.51
72066;BME280;59939;52.516;13.420;2022-08-07T06:29:30;101670.25;;;19.27;41.73
72066;BME280;59939;52.516;13.420;2022-08-07T06:32:37;101656.56;;;19.21;41.95
72066;BME280;59939;52.516;13.420;2022-08-07T06:35:48;101660.06;;;18.98;41.47
72066;BME280;59939;52.516;13.420;2022-08-07T06:38:53;101665.13;;;18.54;43.09
72066;BME280;59939;52.516;13.420;2022-08-07T06:42:07;101663.25;;;18.87;41.74
72066;BME280;59939;52.516;13.420;2022-08-07T06:45:35;101671.81;;;19.48;41.06
72066;BME280;59939;52.516;13.420;2022-08-07T06:48:40;101677.25;;;18.79;40.52
72066;BME280;59939;52.516;13.420;2022-08-07T06:52:11;101676.16;;;18.71;39.91
72066;BME280;59939;52.516;13.420;2022-08-07T06:55:29;101676.22;;;18.12;41.37
72066;BME280;59939;52.516;13.420;2022-08-07T06:58:39;101679.72;;;18.51;42.00
72066;BME280;59939;52.516;13.420;2022-08-07T07:01:47;101678.09;;;17.36;44.74
72066;BME280;59939;52.516;13.420;2022-08-07T07:04:52;101674.72;;;17.85;43.67
72066;BME280;59939;52.516;13.420;2022-08-07T07:07:59;101677.44;;;18.23;42.67
72066;BME280;59939;52.516;13.420;2022-08-07T07:11:05;101669.75;;;18.50;42.36
72066;BME280;59939;52.516;13.420;2022-08-07T07:14:51;101668.94;;;19.57;39.84
72066;BME280;59939;52.516;13.420;2022-08-07T07:18:22;101676.44;;;18.78;41.02
72066;BME280;59939;52.516;13.420;2022-08-07T07:21:34;101675.06;;;18.84;41.80
72066;BME280;59939;52.516;13.420;2022-08-07T07:24:50;101674.94;;;18.31;42.32
72066;BME280;59939;52.516;13.420;2022-08-07T07:28:00;101673.56;;;19.08;41.29
72066;BME280;59939;52.516;13.420;2022-08-07T07:31:30;101669.91;;;19.85;39.78
72066;BME280;59939;52.516;13.420;2022-08-07T07:34:40;101661.88;;;20.33;37.84
72066;BME280;59939;52.516;13.420;2022-08-07T07:37:46;101659.13;;;21.88;34.80
72066;BME280;59939;52.516;13.420;2022-08-07T07:41:07;101657.00;;;19.57;39.17
72066;BME280;59939;52.516;13.420;2022-08-07T07:44:15;101653.97;;;21.43;35.12
72066;BME280;59939;52.516;13.420;2022-08-07T07:47:28;101652.19;;;21.82;34.40
72066;BME280;59939;52.516;13.420;2022-08-07T07:50:33;101655.03;;;21.10;34.51
72066;BME280;59939;52.516;13.420;2022-08-07T07:53:42;101634.00;;;24.64;29.62
72066;BME280;59939;52.516;13.420;2022-08-07T07:56:48;101629.31;;;25.09;27.79
72066;BME280;59939;52.516;13.420;2022-08-07T08:00:19;101632.84;;;27.64;24.73
72066;BME280;59939;52.516;13.420;2022-08-07T08:03:27;101632.06;;;27.74;24.81
72066;BME280;59939;52.516;13.420;2022-08-07T08:06:33;101641.63;;;21.16;34.37
72066;BME280;59939;52.516;13.420;2022-08-07T08:09:39;101632.66;;;23.29;31.37
72066;BME280;59939;52.516;13.420;2022-08-07T08:12:45;101631.25;;;20.08;36.63
72066;BME280;59939;52.516;13.420;2022-08-07T08:15:56;101626.28;;;24.91;28.52
72066;BME280;59939;52.516;13.420;2022-08-07T08:19:04;101620.72;;;27.42;24.57
72066;BME280;59939;52.516;13.420;2022-08-07T08:22:12;101623.66;;;23.20;30.35
72066;BME280;59939;52.516;13.420;2022-08-07T08:25:46;101620.63;;;24.87;28.07
72066;BME280;59939;52.516;13.420;2022-08-07T08:29:13;101622.53;;;21.46;33.24
72066;BME280;59939;52.516;13.420;2022-08-07T08:32:24;101615.06;;;24.27;28.32
72066;BME280;59939;52.516;13.420;2022-08-07T08:35:30;101607.94;;;25.78;26.42
72066;BME280;59939;52.516;13.420;2022-08-07T08:38:40;101600.03;;;25.94;25.71
72066;BME280;59939;52.516;13.420;2022-08-07T08:41:52;101613.22;;;24.12;28.28
72066;BME280;59939;52.516;13.420;2022-08-07T08:48:54;101618.59;;;26.86;23.92
72066;BME280;59939;52.516;13.420;2022-08-07T08:55:39;101598.19;;;27.46;23.58
72066;BME280;59939;52.516;13.420;2022-08-07T08:59:19;101599.84;;;27.61;23.64
72066;BME280;59939;52.516;13.420;2022-08-07T09:03:00;101595.38;;;27.85;23.78
72066;BME280;59939;52.516;13.420;2022-08-07T09:06:25;101593.41;;;30.01;20.42
72066;BME280;59939;52.516;13.420;2022-08-07T09:17:22;101594.94;;;28.29;22.79
72066;BME280;59939;52.516;13.420;2022-08-07T09:24:28;101589.97;;;22.74;29.54
72066;BME280;59939;52.516;13.420;2022-08-07T09:31:32;101584.13;;;24.24;28.47
72066;BME280;59939;52.516;13.420;2022-08-07T09:35:05;101584.53;;;23.69;28.64
72066;BME280;59939;52.516;13.420;2022-08-07T09:38:21;101580.69;;;23.55;28.32
72066;BME280;59939;52.516;13.420;2022-08-07T09:41:37;101581.94;;;22.34;30.38
72066;BME280;59939;52.516;13.420;2022-08-07T09:45:11;101566.28;;;25.47;25.58
72066;BME280;59939;52.516;13.420;2022-08-07T09:48:41;101568.72;;;28.18;22.20
72066;BME280;59939;52.516;13.420;2022-08-07T09:52:27;101555.50;;;30.29;19.69
72066;BME280;59939;52.516;13.420;2022-08-07T09:59:10;101545.50;;;31.59;18.17
72066;BME280;59939;52.516;13.420;2022-08-07T10:02:33;101549.31;;;31.96;17.31
72066;BME280;59939;52.516;13.420;2022-08-07T10:09:37;101540.19;;;27.38;22.70
72066;BME280;59939;52.516;13.420;2022-08-07T10:16:36;101530.13;;;29.84;19.17
72066;BME280;59939;52.516;13.420;2022-08-07T10:23:28;101526.22;;;29.71;20.15
72066;BME280;59939;52.516;13.420;2022-08-07T10:30:10;101508.63;;;29.53;19.96
72066;BME280;59939;52.516;13.420;2022-08-07T10:37:09;101504.06;;;30.34;19.16
72066;BME280;59939;52.516;13.420;2022-08-07T10:40:37;101499.06;;;30.76;18.65
72066;BME280;59939;52.516;13.420;2022-08-07T10:47:39;101488.53;;;31.27;17.79
72066;BME280;59939;52.516;13.420;2022-08-07T10:50:57;101493.72;;;30.51;18.26
72066;BME280;59939;52.516;13.420;2022-08-07T10:54:25;101491.88;;;27.68;21.79
72066;BME280;59939;52.516;13.420;2022-08-07T10:57:49;101496.66;;;26.68;23.42
72066;BME280;59939;52.516;13.420;2022-08-07T11:01:07;101487.56;;;25.98;23.67
72066;BME280;59939;52.516;13.420;2022-08-07T11:04:49;101485.84;;;25.79;23.96
72066;BME280;59939;52.516;13.420;2022-08-07T11:11:32;101480.41;;;26.18;23.30
72066;BME280;59939;52.516;13.420;2022-08-07T11:14:42;101474.88;;;25.63;23.45
72066;BME280;59939;52.516;13.420;2022-08-07T11:17:58;101477.41;;;26.91;22.57
72066;BME280;59939;52.516;13.420;2022-08-07T11:28:18;101461.00;;;25.88;23.62
72066;BME280;59939;52.516;13.420;2022-08-07T11:31:43;101459.41;;;25.87;23.67
72066;BME280;59939;52.516;13.420;2022-08-07T11:35:24;101455.28;;;25.71;23.74
72066;BME280;59939;52.516;13.420;2022-08-07T11:38:42;101448.22;;;24.92;25.33
72066;BME280;59939;52.516;13.420;2022-08-07T11:42:09;101448.25;;;25.40;24.34
72066;BME280;59939;52.516;13.420;2022-08-07T11:45:32;101443.19;;;25.08;25.13
72066;BME280;59939;52.516;13.420;2022-08-07T11:49:19;101443.47;;;24.18;25.72
72066;BME280;59939;52.516;13.420;2022-08-07T11:52:41;101439.47;;;25.48;24.60
72066;BME280;59939;52.516;13.420;2022-08-07T11:56:20;101441.63;;;25.69;24.26
72066;BME280;59939;52.516;13.420;2022-08-07T12:03:37;101437.13;;;26.51;23.12
72066;BME280;59939;52.516;13.420;2022-08-07T12:07:16;101427.75;;;26.19;23.68
72066;BME280;59939;52.516;13.420;2022-08-07T12:10:39;101413.97;;;28.75;20.69
72066;BME280;59939;52.516;13.420;2022-08-07T12:13:52;101417.47;;;29.76;19.64
72066;BME280;59939;52.516;13.420;2022-08-07T12:17:02;101414.28;;;29.33;19.61
72066;BME280;59939;52.516;13.420;2022-08-07T12:23:58;101410.25;;;28.34;20.61
72066;BME280;59939;52.516;13.420;2022-08-07T12:27:17;101407.91;;;30.27;18.53
72066;BME280;59939;52.516;13.420;2022-08-07T12:30:25;101398.66;;;31.24;17.35
72066;BME280;59939;52.516;13.420;2022-08-07T12:33:32;101394.00;;;28.52;20.74
72066;BME280;59939;52.516;13.420;2022-08-07T12:36:45;101392.03;;;27.40;22.13
72066;BME280;59939;52.516;13.420;2022-08-07T12:39:51;101397.78;;;26.98;22.76
72066;BME280;59939;52.516;13.420;2022-08-07T12:43:02;101383.19;;;29.70;19.61
72066;BME280;59939;52.516;13.420;2022-08-07T12:50:09;101384.06;;;26.82;22.34
72066;BME280;59939;52.516;13.420;2022-08-07T12:56:34;101363.31;;;28.57;20.94
72066;BME280;59939;52.516;13.420;2022-08-07T12:59:40;101368.75;;;29.92;19.29
72066;BME280;59939;52.516;13.420;2022-08-07T13:03:04;101376.88;;;25.55;23.68
72066;BME280;59939;52.516;13.420;2022-08-07T13:17:12;101347.78;;;31.96;17.24
72066;BME280;59939;52.516;13.420;2022-08-07T13:20:44;101345.53;;;32.56;16.33
72066;BME280;59939;52.516;13.420;2022-08-07T13:24:06;101350.59;;;30.46;18.49
72066;BME280;59939;52.516;13.420;2022-08-07T13:27:50;101344.47;;;33.98;15.23
72066;BME280;59939;52.516;13.420;2022-08-07T13:31:02;101340.63;;;33.05;15.99
72066;BME280;59939;52.516;13.420;2022-08-07T13:34:45;101339.88;;;33.33;15.94
72066;BME280;59939;52.516;13.420;2022-08-07T13:38:16;101343.19;;;33.16;15.52
72066;BME280;59939;52.516;13.420;2022-08-07T13:41:41;101337.13;;;32.00;16.63
72066;BME280;59939;52.516;13.420;2022-08-07T13:45:02;101324.25;;;32.31;16.45
72066;BME280;59939;52.516;13.420;2022-08-07T13:48:10;101331.78;;;31.86;16.82
72066;BME280;59939;52.516;13.420;2022-08-07T13:51:19;101322.06;;;29.80;18.99
72066;BME280;59939;52.516;13.420;2022-08-07T13:54:29;101323.16;;;27.52;21.39
72066;BME280;59939;52.516;13.420;2022-08-07T13:57:38;101319.13;;;27.56;21.71
72066;BME280;59939;52.516;13.420;2022-08-07T14:00:46;101325.28;;;27.26;21.52
72066;BME280;59939;52.516;13.420;2022-08-07T14:03:52;101326.97;;;26.60;22.85
72066;BME280;59939;52.516;13.420;2022-08-07T14:06:58;101318.84;;;26.09;23.08
72066;BME280;59939;52.516;13.420;2022-08-07T14:10:03;101322.03;;;25.86;23.52
72066;BME280;59939;52.516;13.420;2022-08-07T14:13:15;101314.88;;;26.84;22.46
72066;BME280;59939;52.516;13.420;2022-08-07T14:16:28;101301.50;;;27.35;21.93
72066;BME280;59939;52.516;13.420;2022-08-07T14:19:36;101305.44;;;27.55;21.50
72066;BME280;59939;52.516;13.420;2022-08-07T14:22:41;101305.72;;;27.85;21.79
72066;BME280;59939;52.516;13.420;2022-08-07T14:25:54;101305.97;;;27.21;21.78
72066;BME280;59939;52.516;13.420;2022-08-07T14:29:04;101304.78;;;27.22;22.32
72066;BME280;59939;52.516;13.420;2022-08-07T14:32:11;101299.00;;;25.52;24.43
72066;BME280;59939;52.516;13.420;2022-08-07T14:35:35;101297.34;;;25.40;24.39
72066;BME280;59939;52.516;13.420;2022-08-07T14:38:40;101288.00;;;25.18;25.06
72066;BME280;59939;52.516;13.420;2022-08-07T14:41:48;101294.75;;;25.93;24.13
72066;BME280;59939;52.516;13.420;2022-08-07T14:44:57;101296.34;;;26.01;24.15
72066;BME280;59939;52.516;13.420;2022-08-07T14:48:02;101287.56;;;26.71;23.21
72066;BME280;59939;52.516;13.420;2022-08-07T14:51:10;101286.34;;;27.87;21.79
72066;BME280;59939;52.516;13.420;2022-08-07T14:54:17;101287.06;;;28.02;21.46
72066;BME280;59939;52.516;13.420;2022-08-07T14:57:24;101288.25;;;27.28;22.27
72066;BME280;59939;52.516;13.420;2022-08-07T15:00:32;101277.44;;;28.51;21.10
72066;BME280;59939;52.516;13.420;2022-08-07T15:03:58;101287.16;;;26.33;23.38
72066;BME280;59939;52.516;13.420;2022-08-07T15:07:09;101279.47;;;26.01;24.09
72066;BME280;59939;52.516;13.420;2022-08-07T15:10:18;101281.91;;;25.02;24.54
72066;BME280;59939;52.516;13.420;2022-08-07T15:13:25;101285.31;;;23.86;26.22
72066;BME280;59939;52.516;13.420;2022-08-07T15:16:43;101278.34;;;24.10;26.07
72066;BME280;59939;52.516;13.420;2022-08-07T15:19:53;101274.81;;;24.60;25.67
72066;BME280;59939;52.516;13.420;2022-08-07T15:23:00;101268.81;;;25.34;24.53
72066;BME280;59939;52.516;13.420;2022-08-07T15:26:06;101271.94;;;24.09;26.39
72066;BME280;59939;52.516;13.420;2022-08-07T15:29:17;101271.53;;;25.13;24.74
72066;BME280;59939;52.516;13.420;2022-08-07T15:32:24;101258.97;;;27.04;22.28
72066;BME280;59939;52.516;13.420;2022-08-07T15:35:29;101254.59;;;27.76;21.19
72066;BME280;59939;52.516;13.420;2022-08-07T15:38:38;101259.38;;;26.99;22.37
72066;BME280;59939;52.516;13.420;2022-08-07T15:42:01;101259.94;;;27.53;21.29
72066;BME280;59939;52.516;13.420;2022-08-07T15:45:08;101252.91;;;26.95;22.17
72066;BME280;59939;52.516;13.420;2022-08-07T15:48:25;101247.25;;;27.16;22.07
72066;BME280;59939;52.516;13.420;2022-08-07T15:51:39;101245.63;;;27.22;21.97
72066;BME280;59939;52.516;13.420;2022-08-07T15:54:49;101241.47;;;27.45;21.50
72066;BME280;59939;52.516;13.420;2022-08-07T15:57:56;101247.34;;;26.06;22.86
72066;BME280;59939;52.516;13.420;2022-08-07T16:01:04;101246.56;;;26.48;22.93
72066;BME280;59939;52.516;13.420;2022-08-07T16:04:18;101235.56;;;27.18;22.13
72066;BME280;59939;52.516;13.420;2022-08-07T16:07:27;101236.34;;;27.95;20.80
72066;BME280;59939;52.516;13.420;2022-08-07T16:10:33;101230.94;;;28.63;20.32
72066;BME280;59939;52.516;13.420;2022-08-07T16:14:04;101233.34;;;28.20;20.89
72066;BME280;59939;52.516;13.420;2022-08-07T16:17:26;101228.00;;;27.01;22.01
72066;BME280;59939;52.516;13.420;2022-08-07T16:20:41;101225.28;;;27.56;22.24
72066;BME280;59939;52.516;13.420;2022-08-07T16:23:58;101228.63;;;27.33;22.15
72066;BME280;59939;52.516;13.420;2022-08-07T16:27:11;101229.59;;;27.02;22.17
72066;BME280;59939;52.516;13.420;2022-08-07T16:30:19;101231.28;;;26.28;22.79
72066;BME280;59939;52.516;13.420;2022-08-07T16:33:26;101233.69;;;26.12;23.68
72066;BME280;59939;52.516;13.420;2022-08-07T16:36:41;101236.81;;;25.60;23.95
72066;BME280;59939;52.516;13.420;2022-08-07T16:40:06;101228.59;;;25.09;24.65
72066;BME280;59939;52.516;13.420;2022-08-07T16:47:52;101230.25;;;25.17;24.09
72066;BME280;59939;52.516;13.420;2022-08-07T16:55:14;101234.00;;;24.70;25.05
72066;BME280;59939;52.516;13.420;2022-08-07T16:59:00;101235.22;;;24.80;24.91
72066;BME280;59939;52.516;13.420;2022-08-07T17:06:11;101228.56;;;25.06;24.66
72066;BME280;59939;52.516;13.420;2022-08-07T17:13:38;101226.47;;;25.89;23.49
72066;BME280;59939;52.516;13.420;2022-08-07T17:16:56;101212.38;;;25.75;23.95
72066;BME280;59939;52.516;13.420;2022-08-07T17:20:07;101230.06;;;25.79;23.98
72066;BME280;59939;52.516;13.420;2022-08-07T17:26:35;101228.84;;;26.01;23.68
72066;BME280;59939;52.516;13.420;2022-08-07T17:33:17;101235.03;;;25.17;24.98
72066;BME280;59939;52.516;13.420;2022-08-07T17:36:31;101229.53;;;25.42;24.84
72066;BME280;59939;52.516;13.420;2022-08-07T17:39:54;101232.56;;;25.01;25.37
72066;BME280;59939;52.516;13.420;2022-08-07T17:43:05;101237.56;;;24.67;25.26
72066;BME280;59939;52.516;13.420;2022-08-07T17:46:32;101239.38;;;24.38;26.25
72066;BME280;59939;52.516;13.420;2022-08-07T17:49:43;101233.81;;;24.45;26.08
72066;BME280;59939;52.516;13.420;2022-08-07T17:53:05;101232.03;;;23.82;27.14
72066;BME280;59939;52.516;13.420;2022-08-07T17:56:20;101235.25;;;23.51;27.29
72066;BME280;59939;52.516;13.420;2022-08-07T17:59:45;101235.09;;;23.33;27.79
72066;BME280;59939;52.516;13.420;2022-08-07T18:02:57;101235.59;;;23.46;27.91
72066;BME280;59939;52.516;13.420;2022-08-07T18:06:05;101234.22;;;23.62;27.76
72066;BME280;59939;52.516;13.420;2022-08-07T18:09:19;101234.53;;;23.54;28.00
72066;BME280;59939;52.516;13.420;2022-08-07T18:12:38;101234.16;;;23.55;28.13
72066;BME280;59939;52.516;13.420;2022-08-07T18:16:04;101236.09;;;22.88;28.98
72066;BME280;59939;52.516;13.420;2022-08-07T18:19:20;101228.69;;;22.76;29.71
72066;BME280;59939;52.516;13.420;2022-08-07T18:22:36;101234.91;;;22.62;30.02
72066;BME280;59939;52.516;13.420;2022-08-07T18:25:46;101227.34;;;22.40;30.51
72066;BME280;59939;52.516;13.420;2022-08-07T18:39:47;101248.25;;;22.00;31.67
72066;BME280;59939;52.516;13.420;2022-08-07T18:43:10;101248.88;;;21.90;31.91